Arnoldsville, Georgia
Current Conditions -  °F | °C
As of 8:51 PM on Friday 31 Oct 2014 (Local Time) from KAHN Reporting Station
Scattered Clouds Scattered Clouds  
Wind Chill: 52°   Ceiling: Unl
Heat Index: 52°   Visibility: 10mi
Dew Point: 41°   Wind: 7mph
Humidity: 66%   Direction: 270°W
Pressure: 29.86"   Gusts: NA
Location:  33.91°N, 83.22°W
Report Text: KAHN 010051Z AUTO 27006KT 10SM SCT120 11/05 A2986 RMK AO2 SLP113 T01110050
Loading
Personal Weather Stations






























Interactive Weather Map
Tropical Storm Tracking
New forecast layout! Learn more

10-Day Weather Forecast

Advertisements
Track Severe Weather on mobile